TimePST,TemperatureF,Dew PointF,Humidity,Sea Level PressureIn,VisibilityMPH,Wind Direction,Wind SpeedMPH,Gust SpeedMPH,PrecipitationIn,Events,Conditions,WindDirDegrees,DateUTC
12:15 AM,44.6,41.0,87,30.19,10.0,East,6.9,-,N/A,,Clear,90,2012-11-22 08:15:00
12:35 AM,46.4,37.4,71,30.19,10.0,East,9.2,-,N/A,,Clear,80,2012-11-22 08:35:00
12:55 AM,46.4,37.4,71,30.19,10.0,East,10.4,-,N/A,,Clear,80,2012-11-22 08:55:00
1:15 AM,46.4,35.6,66,30.19,10.0,ENE,13.8,-,N/A,,Clear,70,2012-11-22 09:15:00
1:35 AM,46.4,35.6,66,30.18,10.0,East,9.2,-,N/A,,Clear,80,2012-11-22 09:35:00
1:55 AM,46.4,35.6,66,30.19,10.0,East,6.9,-,N/A,,Clear,90,2012-11-22 09:55:00
2:15 AM,46.4,35.6,66,30.18,10.0,ENE,8.1,-,N/A,,Clear,70,2012-11-22 10:15:00
2:35 AM,44.6,35.6,71,30.18,10.0,ENE,8.1,-,N/A,,Clear,60,2012-11-22 10:35:00
2:55 AM,44.6,35.6,71,30.19,10.0,ENE,9.2,-,N/A,,Clear,70,2012-11-22 10:55:00
3:15 AM,44.6,35.6,71,30.19,10.0,ENE,12.7,-,N/A,,Clear,70,2012-11-22 11:15:00
3:35 AM,44.6,33.8,66,30.18,10.0,ENE,11.5,-,N/A,,Clear,60,2012-11-22 11:35:00
3:55 AM,44.6,32.0,61,30.18,10.0,ENE,13.8,-,N/A,,Clear,70,2012-11-22 11:55:00
4:15 AM,44.6,32.0,61,30.17,10.0,East,12.7,-,N/A,,Clear,80,2012-11-22 12:15:00
4:35 AM,44.6,32.0,61,30.17,10.0,East,9.2,-,N/A,,Clear,80,2012-11-22 12:35:00
4:55 AM,44.6,32.0,61,30.18,10.0,ENE,10.4,-,N/A,,Clear,70,2012-11-22 12:55:00
5:15 AM,44.6,32.0,61,30.18,10.0,East,8.1,-,N/A,,Clear,80,2012-11-22 13:15:00
5:35 AM,46.4,32.0,57,30.18,10.0,East,5.8,-,N/A,,Clear,100,2012-11-22 13:35:00
5:55 AM,44.6,32.0,61,30.18,10.0,East,6.9,-,N/A,,Clear,100,2012-11-22 13:55:00
6:15 AM,48.2,30.2,50,30.19,10.0,ESE,4.6,-,N/A,,Clear,110,2012-11-22 14:15:00
6:35 AM,46.4,30.2,53,30.19,10.0,East,9.2,-,N/A,,Clear,80,2012-11-22 14:35:00
6:55 AM,41.0,32.0,70,30.19,10.0,East,6.9,-,N/A,,Clear,90,2012-11-22 14:55:00
7:15 AM,44.6,32.0,61,30.19,10.0,ESE,10.4,-,N/A,,Clear,110,2012-11-22 15:15:00
7:35 AM,46.4,30.2,53,30.21,10.0,East,6.9,-,N/A,,Clear,100,2012-11-22 15:35:00
7:55 AM,48.2,26.6,43,30.22,10.0,ENE,3.5,-,N/A,,Clear,70,2012-11-22 15:55:00
8:15 AM,48.2,28.4,46,30.23,10.0,Calm,Calm,-,N/A,,Clear,0,2012-11-22 16:15:00
8:35 AM,50.0,28.4,43,30.23,10.0,Calm,Calm,-,N/A,,Clear,0,2012-11-22 16:35:00
8:55 AM,53.6,37.4,54,30.24,10.0,Calm,Calm,-,N/A,,Clear,0,2012-11-22 16:55:00
9:15 AM,51.8,32.0,47,30.25,10.0,Calm,Calm,-,N/A,,Clear,0,2012-11-22 17:15:00
9:35 AM,53.6,35.6,51,30.25,10.0,Calm,Calm,-,N/A,,Clear,0,2012-11-22 17:35:00
9:55 AM,53.6,33.8,47,30.25,10.0,ESE,3.5,-,N/A,,Clear,110,2012-11-22 17:55:00
10:15 AM,55.4,37.4,51,30.24,10.0,Calm,Calm,-,N/A,,Clear,0,2012-11-22 18:15:00
10:35 AM,57.2,35.6,44,30.24,10.0,Calm,Calm,-,N/A,,Clear,0,2012-11-22 18:35:00
10:55 AM,59.0,41.0,51,30.24,10.0,Calm,Calm,-,N/A,,Clear,0,2012-11-22 18:55:00
11:15 AM,57.2,42.8,59,30.23,10.0,Calm,Calm,-,N/A,,Clear,0,2012-11-22 19:15:00
11:35 AM,57.2,44.6,63,30.23,10.0,WNW,6.9,-,N/A,,Clear,290,2012-11-22 19:35:00
11:55 AM,55.4,44.6,67,30.22,10.0,Calm,Calm,-,N/A,,Clear,0,2012-11-22 19:55:00
12:15 PM,55.4,44.6,67,30.22,10.0,Calm,Calm,-,N/A,,Clear,0,2012-11-22 20:15:00
12:35 PM,55.4,44.6,67,30.22,10.0,NW,4.6,-,N/A,,Clear,310,2012-11-22 20:35:00
12:55 PM,55.4,44.6,67,30.21,10.0,Calm,Calm,-,N/A,,Clear,0,2012-11-22 20:55:00
1:15 PM,55.4,44.6,67,30.21,10.0,Calm,Calm,-,N/A,,Clear,0,2012-11-22 21:15:00
1:35 PM,59.0,44.6,59,30.20,10.0,Calm,Calm,-,N/A,,Clear,0,2012-11-22 21:35:00
1:55 PM,59.0,46.4,63,30.21,10.0,Calm,Calm,-,N/A,,Clear,0,2012-11-22 21:55:00
2:15 PM,59.0,46.4,63,30.20,10.0,Calm,Calm,-,N/A,,Clear,0,2012-11-22 22:15:00
2:35 PM,59.0,44.6,59,30.20,10.0,Calm,Calm,-,N/A,,Clear,0,2012-11-22 22:35:00
2:55 PM,59.0,44.6,59,30.20,10.0,Calm,Calm,-,N/A,,Clear,0,2012-11-22 22:55:00
3:15 PM,57.2,44.6,63,30.21,10.0,WNW,3.5,-,N/A,,Clear,300,2012-11-22 23:15:00
3:35 PM,55.4,44.6,67,30.21,10.0,WNW,5.8,-,N/A,,Clear,300,2012-11-22 23:35:00
3:55 PM,55.4,44.6,67,30.21,10.0,Calm,Calm,-,N/A,,Clear,0,2012-11-22 23:55:00
4:35 PM,53.6,46.4,77,30.21,10.0,Calm,Calm,-,N/A,,Clear,0,2012-11-23 00:35:00
4:55 PM,51.8,46.4,82,30.21,10.0,Calm,Calm,-,N/A,,Clear,0,2012-11-23 00:55:00
5:15 PM,51.8,44.6,76,30.21,10.0,Calm,Calm,-,N/A,,Clear,0,2012-11-23 01:15:00
5:55 PM,50.0,44.6,82,30.21,10.0,Calm,Calm,-,N/A,,Clear,0,2012-11-23 01:55:00
6:15 PM,50.0,46.4,87,30.22,10.0,Calm,Calm,-,N/A,,Clear,0,2012-11-23 02:15:00
6:35 PM,48.2,46.4,93,30.22,10.0,Calm,Calm,-,N/A,,Clear,0,2012-11-23 02:35:00
6:55 PM,50.0,46.4,87,30.23,10.0,Calm,Calm,-,N/A,,Clear,0,2012-11-23 02:55:00
7:15 PM,50.0,46.4,87,30.23,10.0,Calm,Calm,-,N/A,,Clear,0,2012-11-23 03:15:00
7:35 PM,50.0,46.4,87,30.23,10.0,Calm,Calm,-,N/A,,Clear,0,2012-11-23 03:35:00
7:55 PM,50.0,46.4,87,30.24,10.0,ESE,4.6,-,N/A,,Clear,110,2012-11-23 03:55:00
8:15 PM,48.2,46.4,93,30.24,10.0,Calm,Calm,-,N/A,,Clear,0,2012-11-23 04:15:00
8:35 PM,50.0,46.4,87,30.24,10.0,Calm,Calm,-,N/A,,Clear,0,2012-11-23 04:35:00
8:55 PM,50.0,46.4,87,30.25,10.0,Calm,Calm,-,N/A,,Clear,0,2012-11-23 04:55:00
9:15 PM,48.2,46.4,93,30.25,10.0,ESE,4.6,-,N/A,,Clear,110,2012-11-23 05:15:00
9:35 PM,50.0,46.4,87,30.25,10.0,ESE,4.6,-,N/A,,Clear,120,2012-11-23 05:35:00
9:55 PM,48.2,44.6,87,30.26,10.0,ESE,5.8,-,N/A,,Clear,120,2012-11-23 05:55:00
10:15 PM,50.0,46.4,87,30.25,10.0,ESE,5.8,-,N/A,,Clear,120,2012-11-23 06:15:00
10:35 PM,50.0,44.6,82,30.25,10.0,Calm,Calm,-,N/A,,Clear,0,2012-11-23 06:35:00
10:55 PM,48.2,44.6,87,30.26,10.0,Calm,Calm,-,N/A,,Clear,0,2012-11-23 06:55:00
11:15 PM,50.0,44.6,82,30.26,10.0,Calm,Calm,-,N/A,,Clear,0,2012-11-23 07:15:00
11:35 PM,51.8,44.6,76,30.26,10.0,Calm,Calm,-,N/A,,Clear,0,2012-11-23 07:35:00
11:55 PM,53.6,42.8,67,30.27,10.0,Calm,Calm,-,N/A,,Clear,0,2012-11-23 07:55:00